createdAt,value
2024-02-29T00:01:05.973Z,31.97
2024-02-29T00:06:09.049Z,30.40
2024-02-29T00:11:14.326Z,31.17
2024-02-29T00:16:17.747Z,34.20
2024-02-29T00:21:20.769Z,31.37
2024-02-29T00:26:25.418Z,28.40
2024-02-29T00:31:28.317Z,24.73
2024-02-29T00:36:31.303Z,31.00
2024-02-29T00:41:35.807Z,28.67
2024-02-29T00:46:39.558Z,28.23
2024-02-29T00:51:42.502Z,28.93
2024-02-29T00:56:46.851Z,31.40
2024-02-29T01:01:49.961Z,32.63
2024-02-29T01:06:53.041Z,32.60
2024-02-29T01:11:57.283Z,27.57
2024-02-29T01:17:00.229Z,32.40
2024-02-29T01:22:03.548Z,31.47
2024-02-29T01:27:08.416Z,29.40
2024-02-29T01:32:18.656Z,29.50
2024-02-29T01:37:25.733Z,28.37
2024-02-29T01:42:30.032Z,28.00
2024-02-29T01:47:32.947Z,29.47
2024-02-29T01:52:40.554Z,30.80
2024-02-29T01:57:45.751Z,31.13
2024-02-29T02:02:48.950Z,31.83
2024-02-29T02:07:52.532Z,27.73
2024-02-29T02:12:56.851Z,26.37
2024-02-29T02:17:59.795Z,31.30
2024-02-29T02:23:04.064Z,30.40
2024-02-29T02:28:07.265Z,29.40
2024-02-29T02:33:12.112Z,32.60
2024-02-29T02:38:16.521Z,28.93
2024-02-29T02:43:19.487Z,30.70
2024-02-29T02:48:22.515Z,27.20
2024-02-29T02:53:26.744Z,32.27
2024-02-29T02:58:29.689Z,32.87
2024-02-29T03:03:33.211Z,27.83
2024-02-29T03:08:37.574Z,29.87
2024-02-29T03:13:40.898Z,27.73
2024-02-29T03:18:43.846Z,28.80
2024-02-29T03:23:48.490Z,25.30
2024-02-29T03:28:51.385Z,27.17
2024-02-29T03:33:54.285Z,28.70
2024-02-29T03:38:59.100Z,32.00
2024-02-29T03:44:02.063Z,29.63
2024-02-29T03:49:05.289Z,26.80
2024-02-29T03:54:09.738Z,24.43
2024-02-29T03:59:12.630Z,23.43
2024-02-29T04:04:15.622Z,28.00
2024-02-29T04:09:19.879Z,24.80
2024-02-29T04:14:22.804Z,21.47
2024-02-29T04:19:25.681Z,23.00
2024-02-29T04:24:29.972Z,24.27
2024-02-29T04:29:32.998Z,20.47
2024-02-29T04:34:35.900Z,28.37
2024-02-29T04:39:40.177Z,22.70
2024-02-29T04:44:43.262Z,21.77
2024-02-29T04:49:46.151Z,25.83
2024-02-29T04:54:50.670Z,30.10
2024-02-29T04:59:53.689Z,24.27
2024-02-29T05:04:56.596Z,25.10
2024-02-29T05:10:00.959Z,32.27
2024-02-29T05:15:04.372Z,27.50
2024-02-29T05:20:09.037Z,24.83
2024-02-29T05:25:14.717Z,28.50
2024-02-29T05:30:17.946Z,22.90
2024-02-29T05:35:23.678Z,29.37
2024-02-29T05:40:28.863Z,25.30
2024-02-29T05:45:31.823Z,28.77
2024-02-29T05:50:34.770Z,27.10
2024-02-29T05:55:39.197Z,30.47
2024-02-29T06:00:42.263Z,27.30
2024-02-29T06:05:45.196Z,24.93
2024-02-29T06:10:50.266Z,30.60
2024-02-29T06:15:53.363Z,23.60
2024-02-29T06:20:56.274Z,29.30
2024-02-29T06:26:01.342Z,31.70
2024-02-29T06:31:04.443Z,29.63
2024-02-29T06:36:10.134Z,29.10
2024-02-29T06:41:14.742Z,35.43
2024-02-29T06:46:18.271Z,29.90
2024-02-29T06:51:21.315Z,34.87
2024-02-29T06:56:25.585Z,30.03
2024-02-29T07:01:28.598Z,24.90
2024-02-29T07:06:31.707Z,29.93
2024-02-29T07:11:36.061Z,31.67
2024-02-29T07:16:39.750Z,39.40
2024-02-29T07:21:43.488Z,39.60
2024-02-29T07:26:47.827Z,41.37
2024-02-29T07:31:54.922Z,37.33
2024-02-29T07:36:58.100Z,32.10
2024-02-29T07:42:02.374Z,32.50
2024-02-29T07:47:05.560Z,33.20
2024-02-29T07:52:08.461Z,33.50
2024-02-29T07:57:13.002Z,30.47
2024-02-29T08:02:15.955Z,31.57
2024-02-29T08:07:19.267Z,27.20
2024-02-29T08:12:23.587Z,28.23
2024-02-29T08:17:28.270Z,35.30
2024-02-29T08:22:31.351Z,27.10
2024-02-29T08:27:36.613Z,29.37
2024-02-29T08:32:39.591Z,38.60
2024-02-29T08:37:43.825Z,33.70
2024-02-29T08:42:48.148Z,28.77
2024-02-29T08:47:51.340Z,38.00
2024-02-29T08:52:54.335Z,52.70
2024-02-29T08:57:59.432Z,40.60
2024-02-29T09:03:02.365Z,50.97
2024-02-29T09:08:05.563Z,47.47
2024-02-29T09:13:20.531Z,35.60
2024-02-29T09:18:32.808Z,36.17
2024-02-29T09:23:35.693Z,26.20
2024-02-29T09:28:39.969Z,26.97
2024-02-29T09:33:43.239Z,28.13
2024-02-29T09:38:46.316Z,26.40
2024-02-29T09:43:51.068Z,22.40
2024-02-29T09:48:54.425Z,20.40
2024-02-29T09:53:58.592Z,27.33
2024-02-29T09:59:04.053Z,23.53
2024-02-29T10:04:07.916Z,28.13
2024-02-29T10:09:11.153Z,23.53
2024-02-29T10:14:31.877Z,23.80
2024-02-29T10:19:34.893Z,27.23
2024-02-29T10:24:37.836Z,29.47
2024-02-29T10:29:43.001Z,28.70
2024-02-29T10:34:47.390Z,27.73
2024-02-29T10:39:51.055Z,31.53
2024-02-29T10:44:57.578Z,36.57
2024-02-29T10:50:05.940Z,35.57
2024-02-29T10:55:14.261Z,33.23
2024-02-29T11:00:18.774Z,31.70
2024-02-29T11:05:22.734Z,29.70
2024-02-29T11:10:26.098Z,31.30
2024-02-29T11:15:30.328Z,34.10
2024-02-29T11:20:35.027Z,29.83
2024-02-29T11:25:43.452Z,31.47
2024-02-29T11:30:52.603Z,29.93
2024-02-29T11:35:57.092Z,21.30
2024-02-29T11:41:00.001Z,20.77
2024-02-29T11:46:11.042Z,20.33
2024-02-29T11:51:13.969Z,22.60
2024-02-29T11:56:17.227Z,20.10
2024-02-29T12:01:24.770Z,17.83
2024-02-29T12:06:28.498Z,17.67
2024-02-29T12:11:33.670Z,21.77
2024-02-29T12:16:40.288Z,19.10
2024-02-29T12:21:44.623Z,21.30
2024-02-29T12:26:50.031Z,17.47
2024-02-29T12:31:54.385Z,17.20
2024-02-29T12:36:58.014Z,21.23
2024-02-29T12:42:01.319Z,20.17
2024-02-29T12:47:06.001Z,18.10
2024-02-29T12:52:08.973Z,16.20
2024-02-29T12:57:12.271Z,16.50
2024-02-29T13:02:17.292Z,17.50
2024-02-29T13:07:20.665Z,16.03
2024-02-29T13:12:23.683Z,15.90
2024-02-29T13:17:27.999Z,16.33
2024-02-29T13:22:30.909Z,18.87
2024-02-29T13:27:34.297Z,14.43
2024-02-29T13:32:38.573Z,15.67
2024-02-29T13:37:42.346Z,15.40
2024-02-29T13:42:45.847Z,14.60
2024-02-29T13:47:52.097Z,16.37
2024-02-29T13:52:55.314Z,15.80
2024-02-29T13:57:58.447Z,18.97
2024-02-29T14:03:02.689Z,18.73
2024-02-29T14:08:06.334Z,17.80
2024-02-29T14:13:09.268Z,16.60
2024-02-29T14:18:14.524Z,19.10
2024-02-29T14:23:17.666Z,19.03
2024-02-29T14:28:21.185Z,19.03
2024-02-29T14:33:25.513Z,16.53
2024-02-29T14:38:28.847Z,18.97
2024-02-29T14:43:31.797Z,17.10
2024-02-29T14:48:36.173Z,16.90
2024-02-29T14:53:39.033Z,16.00
2024-02-29T14:58:41.941Z,17.93
2024-02-29T15:03:46.239Z,20.17
2024-02-29T15:08:49.278Z,22.53
2024-02-29T15:13:52.251Z,23.90
2024-02-29T15:18:56.617Z,24.07
2024-02-29T15:23:59.553Z,26.17
2024-02-29T15:29:02.529Z,25.63
2024-02-29T15:34:06.823Z,30.83
2024-02-29T15:39:09.778Z,25.97
2024-02-29T15:44:12.699Z,26.17
2024-02-29T15:49:17.206Z,28.87
2024-02-29T15:54:20.157Z,30.07
2024-02-29T15:59:23.158Z,29.60
2024-02-29T16:04:27.577Z,26.97
2024-02-29T16:09:31.483Z,29.60
2024-02-29T16:14:34.473Z,31.40
2024-02-29T16:19:38.758Z,34.77
2024-02-29T16:24:41.800Z,32.00
2024-02-29T16:29:44.826Z,32.20
2024-02-29T16:34:49.067Z,27.63
2024-02-29T16:39:52.171Z,26.70
2024-02-29T16:44:55.942Z,30.40
2024-02-29T16:50:00.633Z,29.23
2024-02-29T16:55:03.606Z,33.47
2024-02-29T17:00:09.888Z,29.23
2024-02-29T17:05:14.614Z,36.23
2024-02-29T17:10:17.704Z,35.77
2024-02-29T17:15:20.797Z,35.73
2024-02-29T17:20:25.146Z,42.30
2024-02-29T17:25:28.190Z,29.80
2024-02-29T17:30:31.099Z,33.73
2024-02-29T17:35:36.852Z,33.87
2024-02-29T17:40:39.745Z,32.50
2024-02-29T17:45:43.065Z,37.27
2024-02-29T17:50:47.379Z,34.23
2024-02-29T17:55:50.308Z,33.30
2024-02-29T18:00:53.332Z,32.80
2024-02-29T18:05:57.657Z,43.37
2024-02-29T18:11:00.624Z,39.70
2024-02-29T18:16:03.617Z,37.97
2024-02-29T18:21:08.110Z,44.20
2024-02-29T18:26:12.931Z,35.70
2024-02-29T18:31:15.947Z,30.93
2024-02-29T18:36:20.232Z,35.17
2024-02-29T18:41:23.211Z,30.73
2024-02-29T18:46:26.123Z,32.07
2024-02-29T18:51:30.599Z,31.33
2024-02-29T18:56:33.524Z,30.37
2024-02-29T19:01:36.699Z,29.47
2024-02-29T19:06:41.152Z,35.73
2024-02-29T19:11:44.087Z,31.30
2024-02-29T19:16:47.136Z,33.60
2024-02-29T19:21:51.474Z,30.30
2024-02-29T19:26:54.671Z,27.67
2024-02-29T19:31:57.616Z,33.37
2024-02-29T19:37:01.956Z,31.30
2024-02-29T19:42:05.339Z,29.70
2024-02-29T19:47:08.461Z,28.83
2024-02-29T19:52:12.789Z,29.20
2024-02-29T19:57:15.732Z,35.07
2024-02-29T20:02:18.660Z,41.87
2024-02-29T20:07:23.374Z,42.40
2024-02-29T20:12:26.422Z,38.17
2024-02-29T20:17:29.288Z,41.67
2024-02-29T20:22:33.571Z,39.93
2024-02-29T20:27:37.249Z,46.43
2024-02-29T20:32:41.527Z,42.43
2024-02-29T20:37:46.435Z,41.50
2024-02-29T20:42:49.597Z,38.27
2024-02-29T20:47:52.593Z,46.00
2024-02-29T20:52:56.912Z,46.37
2024-02-29T20:57:59.870Z,47.63
2024-02-29T21:03:04.166Z,44.60
2024-02-29T21:08:08.700Z,48.30
2024-02-29T21:13:13.569Z,39.00
2024-02-29T21:18:17.212Z,53.53
2024-02-29T21:23:21.549Z,54.83
2024-02-29T21:28:24.455Z,68.40
2024-02-29T21:33:27.462Z,61.80
2024-02-29T21:38:31.827Z,71.50
2024-02-29T21:43:35.004Z,62.00
2024-02-29T21:48:37.986Z,65.90
2024-02-29T21:53:42.254Z,60.13
2024-02-29T21:58:45.282Z,63.23
2024-02-29T22:03:48.243Z,64.30
2024-02-29T22:08:52.736Z,65.33
2024-02-29T22:13:57.231Z,73.47
2024-02-29T22:19:00.186Z,73.53
2024-02-29T22:24:05.408Z,72.10
2024-02-29T22:29:08.332Z,66.23
2024-02-29T22:34:11.982Z,77.87
2024-02-29T22:39:16.305Z,78.47
2024-02-29T22:44:19.182Z,78.23
2024-02-29T22:49:22.259Z,81.23
2024-02-29T22:54:26.551Z,68.67
2024-02-29T22:59:29.498Z,74.47
2024-02-29T23:04:33.617Z,76.53
2024-02-29T23:09:37.920Z,63.90
2024-02-29T23:14:40.941Z,71.30
2024-02-29T23:19:43.923Z,68.87
2024-02-29T23:24:49.075Z,74.03
2024-02-29T23:29:52.002Z,72.07
2024-02-29T23:34:55.332Z,73.70
2024-02-29T23:39:59.661Z,72.07
2024-02-29T23:45:02.588Z,72.30
2024-02-29T23:50:06.801Z,75.70
2024-02-29T23:55:11.893Z,74.13
